Terminal Aerodrome Forecast
Issued by NWS

Home | Current Version | Previous Version | Text Only | Print | Product List | Glossary On
Versions: 1 2 3 4 5 6 7 8 9 10 11 12 13 14 15 16 17 18 19 20 21
000
FTUS41 KGYX 272327
TAFHIE
TAF
KHIE 272327Z 2800/2824 35012G20KT 1SM -SN OVC015
      TEMPO 2800/2804 2SM -SN BR SCT015 OVC025
     FM280400 33008KT 4SM -SN OVC025
     FM281200 34005KT P6SM -SHSN SCT030 BKN040 OVC070
     FM282000 VRB03KT P6SM SCT050 SCT080=

USA.gov is the U.S. government's official web portal to all federal, state and local government web resources and services.